sensor_id;sensor_type;location;lat;lon;timestamp;pressure;altitude;pressure_sealevel;temperature;humidity
70009;BME280;59542;37.950;-122.338;2023-04-26T00:01:02;101080.72;;;21.07;46.22
70009;BME280;59542;37.950;-122.338;2023-04-26T00:03:31;101075.56;;;21.11;46.36
70009;BME280;59542;37.950;-122.338;2023-04-26T00:05:59;101084.50;;;20.86;47.19
70009;BME280;59542;37.950;-122.338;2023-04-26T00:08:30;101078.25;;;20.96;47.12
70009;BME280;59542;37.950;-122.338;2023-04-26T00:10:56;101082.91;;;21.26;47.36
70009;BME280;59542;37.950;-122.338;2023-04-26T00:13:23;101084.25;;;20.88;47.86
70009;BME280;59542;37.950;-122.338;2023-04-26T00:15:49;101088.53;;;20.68;47.70
70009;BME280;59542;37.950;-122.338;2023-04-26T00:18:15;101089.97;;;20.28;49.10
70009;BME280;59542;37.950;-122.338;2023-04-26T00:20:42;101090.53;;;20.36;48.64
70009;BME280;59542;37.950;-122.338;2023-04-26T00:23:08;101085.56;;;20.17;48.95
70009;BME280;59542;37.950;-122.338;2023-04-26T00:25:36;101093.47;;;20.24;49.05
70009;BME280;59542;37.950;-122.338;2023-04-26T00:28:03;101080.03;;;20.02;49.64
70009;BME280;59542;37.950;-122.338;2023-04-26T00:30:30;101085.78;;;20.06;50.18
70009;BME280;59542;37.950;-122.338;2023-04-26T00:32:57;101085.56;;;19.75;50.56
70009;BME280;59542;37.950;-122.338;2023-04-26T00:35:23;101084.75;;;19.74;50.33
70009;BME280;59542;37.950;-122.338;2023-04-26T00:37:49;101090.06;;;19.96;50.84
70009;BME280;59542;37.950;-122.338;2023-04-26T00:40:15;101094.63;;;19.86;51.10
70009;BME280;59542;37.950;-122.338;2023-04-26T00:42:42;101093.94;;;19.09;51.02
70009;BME280;59542;37.950;-122.338;2023-04-26T00:45:09;101088.13;;;19.22;52.04
70009;BME280;59542;37.950;-122.338;2023-04-26T00:47:35;101103.50;;;19.44;52.02
70009;BME280;59542;37.950;-122.338;2023-04-26T00:50:01;101096.09;;;19.07;52.58
70009;BME280;59542;37.950;-122.338;2023-04-26T00:52:29;101091.72;;;19.01;52.23
70009;BME280;59542;37.950;-122.338;2023-04-26T00:54:56;101092.03;;;19.05;51.41
70009;BME280;59542;37.950;-122.338;2023-04-26T00:57:23;101091.81;;;18.84;52.98
70009;BME280;59542;37.950;-122.338;2023-04-26T00:59:49;101093.50;;;18.90;52.30
70009;BME280;59542;37.950;-122.338;2023-04-26T01:02:16;101094.94;;;18.76;53.19
70009;BME280;59542;37.950;-122.338;2023-04-26T01:04:42;101100.03;;;18.67;53.71
70009;BME280;59542;37.950;-122.338;2023-04-26T01:07:10;101098.09;;;18.46;53.87
70009;BME280;59542;37.950;-122.338;2023-04-26T01:09:36;101100.16;;;18.17;53.95
70009;BME280;59542;37.950;-122.338;2023-04-26T01:12:03;101102.44;;;18.25;53.82
70009;BME280;59542;37.950;-122.338;2023-04-26T01:14:29;101107.81;;;18.03;54.76
70009;BME280;59542;37.950;-122.338;2023-04-26T01:16:56;101108.88;;;18.41;54.63
70009;BME280;59542;37.950;-122.338;2023-04-26T01:19:23;101106.66;;;18.16;55.69
70009;BME280;59542;37.950;-122.338;2023-04-26T01:21:50;101107.91;;;17.91;55.67
70009;BME280;59542;37.950;-122.338;2023-04-26T01:24:16;101109.97;;;18.01;55.59
70009;BME280;59542;37.950;-122.338;2023-04-26T01:26:44;101105.19;;;18.08;55.90
70009;BME280;59542;37.950;-122.338;2023-04-26T01:29:17;101111.22;;;17.93;55.93
70009;BME280;59542;37.950;-122.338;2023-04-26T01:31:44;101106.44;;;18.01;55.35
70009;BME280;59542;37.950;-122.338;2023-04-26T01:34:11;101106.28;;;17.90;55.93
70009;BME280;59542;37.950;-122.338;2023-04-26T01:36:37;101109.97;;;18.01;55.91
70009;BME280;59542;37.950;-122.338;2023-04-26T01:39:04;101112.66;;;17.67;56.17
70009;BME280;59542;37.950;-122.338;2023-04-26T01:41:30;101112.75;;;17.56;56.62
70009;BME280;59542;37.950;-122.338;2023-04-26T01:43:58;101117.59;;;17.08;58.08
70009;BME280;59542;37.950;-122.338;2023-04-26T01:46:25;101113.66;;;16.99;58.55
70009;BME280;59542;37.950;-122.338;2023-04-26T01:48:51;101119.63;;;17.01;58.64
70009;BME280;59542;37.950;-122.338;2023-04-26T01:51:17;101112.78;;;17.10;58.47
70009;BME280;59542;37.950;-122.338;2023-04-26T01:53:44;101121.59;;;16.66;59.00
70009;BME280;59542;37.950;-122.338;2023-04-26T01:56:10;101121.50;;;16.72;59.93
70009;BME280;59542;37.950;-122.338;2023-04-26T01:58:36;101115.47;;;16.70;60.19
70009;BME280;59542;37.950;-122.338;2023-04-26T02:01:07;101120.84;;;16.30;61.42
70009;BME280;59542;37.950;-122.338;2023-04-26T02:03:34;101125.72;;;16.68;61.29
70009;BME280;59542;37.950;-122.338;2023-04-26T02:06:01;101130.69;;;16.48;61.85
70009;BME280;59542;37.950;-122.338;2023-04-26T02:08:28;101139.06;;;16.34;62.29
70009;BME280;59542;37.950;-122.338;2023-04-26T02:10:54;101142.00;;;16.21;62.79
70009;BME280;59542;37.950;-122.338;2023-04-26T02:13:21;101144.38;;;15.94;63.86
70009;BME280;59542;37.950;-122.338;2023-04-26T02:15:50;101138.22;;;15.87;64.13
70009;BME280;59542;37.950;-122.338;2023-04-26T02:18:17;101151.16;;;15.85;64.67
70009;BME280;59542;37.950;-122.338;2023-04-26T02:20:47;101148.19;;;15.63;64.88
70009;BME280;59542;37.950;-122.338;2023-04-26T02:23:13;101154.41;;;15.64;65.20
70009;BME280;59542;37.950;-122.338;2023-04-26T02:25:39;101155.56;;;15.26;66.50
70009;BME280;59542;37.950;-122.338;2023-04-26T02:28:07;101160.63;;;15.04;67.46
70009;BME280;59542;37.950;-122.338;2023-04-26T02:30:33;101155.16;;;15.11;67.35
70009;BME280;59542;37.950;-122.338;2023-04-26T02:32:59;101158.41;;;14.46;69.28
70009;BME280;59542;37.950;-122.338;2023-04-26T02:35:25;101155.41;;;14.54;69.23
70009;BME280;59542;37.950;-122.338;2023-04-26T02:37:52;101154.91;;;14.64;68.87
70009;BME280;59542;37.950;-122.338;2023-04-26T02:40:18;101155.75;;;14.21;69.97
70009;BME280;59542;37.950;-122.338;2023-04-26T02:42:45;101154.25;;;14.43;69.35
70009;BME280;59542;37.950;-122.338;2023-04-26T02:45:11;101158.97;;;14.11;70.45
70009;BME280;59542;37.950;-122.338;2023-04-26T02:47:38;101159.88;;;13.98;70.78
70009;BME280;59542;37.950;-122.338;2023-04-26T02:50:05;101162.88;;;13.90;71.46
70009;BME280;59542;37.950;-122.338;2023-04-26T02:52:36;101160.94;;;13.97;71.02
70009;BME280;59542;37.950;-122.338;2023-04-26T02:55:03;101162.69;;;13.85;71.50
70009;BME280;59542;37.950;-122.338;2023-04-26T02:57:30;101169.56;;;13.81;71.59
70009;BME280;59542;37.950;-122.338;2023-04-26T02:59:57;101171.06;;;13.77;71.45
70009;BME280;59542;37.950;-122.338;2023-04-26T03:02:23;101168.66;;;13.62;72.55
70009;BME280;59542;37.950;-122.338;2023-04-26T03:04:50;101172.47;;;13.48;73.49
70009;BME280;59542;37.950;-122.338;2023-04-26T03:07:16;101186.38;;;13.45;73.45
70009;BME280;59542;37.950;-122.338;2023-04-26T03:09:42;101185.56;;;13.44;73.25
70009;BME280;59542;37.950;-122.338;2023-04-26T03:12:08;101184.03;;;13.55;72.68
70009;BME280;59542;37.950;-122.338;2023-04-26T03:14:35;101183.19;;;13.55;73.16
70009;BME280;59542;37.950;-122.338;2023-04-26T03:17:01;101187.09;;;13.27;74.37
70009;BME280;59542;37.950;-122.338;2023-04-26T03:19:28;101192.50;;;13.27;74.55
70009;BME280;59542;37.950;-122.338;2023-04-26T03:21:55;101188.94;;;13.20;74.90
70009;BME280;59542;37.950;-122.338;2023-04-26T03:24:21;101187.41;;;12.92;76.42
70009;BME280;59542;37.950;-122.338;2023-04-26T03:26:48;101192.00;;;12.85;76.87
70009;BME280;59542;37.950;-122.338;2023-04-26T03:29:15;101190.59;;;12.76;77.10
70009;BME280;59542;37.950;-122.338;2023-04-26T03:31:41;101191.03;;;12.66;77.71
70009;BME280;59542;37.950;-122.338;2023-04-26T03:34:08;101203.25;;;12.56;77.97
70009;BME280;59542;37.950;-122.338;2023-04-26T03:36:34;101203.03;;;12.64;77.82
70009;BME280;59542;37.950;-122.338;2023-04-26T03:39:00;101202.41;;;12.62;77.91
70009;BME280;59542;37.950;-122.338;2023-04-26T03:41:27;101203.25;;;12.56;78.34
70009;BME280;59542;37.950;-122.338;2023-04-26T03:43:53;101204.94;;;12.30;79.94
70009;BME280;59542;37.950;-122.338;2023-04-26T03:46:19;101213.59;;;12.46;79.25
70009;BME280;59542;37.950;-122.338;2023-04-26T03:48:45;101217.94;;;12.47;78.97
70009;BME280;59542;37.950;-122.338;2023-04-26T03:51:11;101216.91;;;12.34;79.07
70009;BME280;59542;37.950;-122.338;2023-04-26T03:53:38;101217.97;;;12.33;79.74
70009;BME280;59542;37.950;-122.338;2023-04-26T03:56:04;101226.84;;;12.27;79.61
70009;BME280;59542;37.950;-122.338;2023-04-26T03:58:30;101224.38;;;12.06;80.90
70009;BME280;59542;37.950;-122.338;2023-04-26T04:00:57;101221.28;;;12.22;80.24
70009;BME280;59542;37.950;-122.338;2023-04-26T04:03:23;101226.00;;;12.20;80.29
70009;BME280;59542;37.950;-122.338;2023-04-26T04:05:49;101229.53;;;12.14;80.62
70009;BME280;59542;37.950;-122.338;2023-04-26T04:08:16;101236.94;;;11.99;81.28
70009;BME280;59542;37.950;-122.338;2023-04-26T04:10:43;101237.78;;;12.12;80.72
70009;BME280;59542;37.950;-122.338;2023-04-26T04:13:10;101234.88;;;12.07;80.81
70009;BME280;59542;37.950;-122.338;2023-04-26T04:15:36;101234.06;;;12.07;81.26
70009;BME280;59542;37.950;-122.338;2023-04-26T04:18:02;101236.53;;;12.15;80.58
70009;BME280;59542;37.950;-122.338;2023-04-26T04:20:29;101248.72;;;12.24;79.79
70009;BME280;59542;37.950;-122.338;2023-04-26T04:22:55;101246.06;;;12.11;81.02
70009;BME280;59542;37.950;-122.338;2023-04-26T04:25:23;101241.72;;;12.17;80.64
70009;BME280;59542;37.950;-122.338;2023-04-26T04:27:50;101246.88;;;12.18;80.28
70009;BME280;59542;37.950;-122.338;2023-04-26T04:30:18;101248.31;;;12.14;80.51
70009;BME280;59542;37.950;-122.338;2023-04-26T04:32:44;101249.34;;;12.13;80.67
70009;BME280;59542;37.950;-122.338;2023-04-26T04:35:11;101244.59;;;12.02;81.10
70009;BME280;59542;37.950;-122.338;2023-04-26T04:37:38;101253.47;;;12.09;80.60
70009;BME280;59542;37.950;-122.338;2023-04-26T04:40:05;101257.56;;;11.85;81.73
70009;BME280;59542;37.950;-122.338;2023-04-26T04:42:33;101255.50;;;11.87;81.35
70009;BME280;59542;37.950;-122.338;2023-04-26T04:45:00;101253.47;;;11.89;81.70
70009;BME280;59542;37.950;-122.338;2023-04-26T04:47:27;101255.31;;;11.88;82.08
70009;BME280;59542;37.950;-122.338;2023-04-26T04:49:53;101254.69;;;11.93;81.68
70009;BME280;59542;37.950;-122.338;2023-04-26T04:52:19;101254.50;;;12.01;81.52
70009;BME280;59542;37.950;-122.338;2023-04-26T04:54:46;101250.16;;;12.13;80.92
70009;BME280;59542;37.950;-122.338;2023-04-26T04:57:13;101254.28;;;11.83;82.29
70009;BME280;59542;37.950;-122.338;2023-04-26T04:59:41;101256.16;;;11.89;82.17
70009;BME280;59542;37.950;-122.338;2023-04-26T05:02:08;101265.75;;;11.70;83.16
70009;BME280;59542;37.950;-122.338;2023-04-26T05:04:37;101258.75;;;11.76;82.71
70009;BME280;59542;37.950;-122.338;2023-04-26T05:07:03;101263.97;;;11.91;82.29
70009;BME280;59542;37.950;-122.338;2023-04-26T05:09:30;101269.47;;;11.76;82.57
70009;BME280;59542;37.950;-122.338;2023-04-26T05:11:56;101266.19;;;11.67;82.68
70009;BME280;59542;37.950;-122.338;2023-04-26T05:14:22;101263.72;;;11.72;82.17
70009;BME280;59542;37.950;-122.338;2023-04-26T05:16:49;101263.94;;;11.77;81.80
70009;BME280;59542;37.950;-122.338;2023-04-26T05:19:15;101263.38;;;11.88;81.24
70009;BME280;59542;37.950;-122.338;2023-04-26T05:21:41;101257.94;;;11.75;81.90
70009;BME280;59542;37.950;-122.338;2023-04-26T05:24:08;101263.53;;;11.87;81.36
70009;BME280;59542;37.950;-122.338;2023-04-26T05:26:34;101272.03;;;11.91;80.82
70009;BME280;59542;37.950;-122.338;2023-04-26T05:29:01;101275.75;;;11.89;81.06
70009;BME280;59542;37.950;-122.338;2023-04-26T05:31:27;101278.63;;;11.95;80.75
70009;BME280;59542;37.950;-122.338;2023-04-26T05:33:53;101271.38;;;11.82;81.28
70009;BME280;59542;37.950;-122.338;2023-04-26T05:36:19;101276.78;;;11.95;80.81
70009;BME280;59542;37.950;-122.338;2023-04-26T05:38:46;101269.94;;;11.93;80.63
70009;BME280;59542;37.950;-122.338;2023-04-26T05:41:13;101270.38;;;12.03;80.25
70009;BME280;59542;37.950;-122.338;2023-04-26T05:43:39;101274.50;;;11.92;80.88
70009;BME280;59542;37.950;-122.338;2023-04-26T05:46:06;101272.84;;;11.98;80.74
70009;BME280;59542;37.950;-122.338;2023-04-26T05:48:32;101273.06;;;12.03;79.81
70009;BME280;59542;37.950;-122.338;2023-04-26T05:50:58;101285.22;;;11.99;80.64
70009;BME280;59542;37.950;-122.338;2023-04-26T05:53:24;101275.31;;;11.86;81.44
70009;BME280;59542;37.950;-122.338;2023-04-26T05:55:51;101282.97;;;11.96;80.72
70009;BME280;59542;37.950;-122.338;2023-04-26T05:58:17;101293.88;;;11.87;81.28
70009;BME280;59542;37.950;-122.338;2023-04-26T06:00:43;101291.19;;;11.87;81.09
70009;BME280;59542;37.950;-122.338;2023-04-26T06:03:09;101289.56;;;11.93;81.28
70009;BME280;59542;37.950;-122.338;2023-04-26T06:05:36;101294.31;;;11.91;81.06
70009;BME280;59542;37.950;-122.338;2023-04-26T06:08:06;101300.25;;;11.80;82.03
70009;BME280;59542;37.950;-122.338;2023-04-26T06:10:34;101297.31;;;11.61;82.75
70009;BME280;59542;37.950;-122.338;2023-04-26T06:13:00;101301.41;;;11.51;83.54
70009;BME280;59542;37.950;-122.338;2023-04-26T06:15:26;101289.28;;;11.68;82.88
70009;BME280;59542;37.950;-122.338;2023-04-26T06:17:53;101292.34;;;11.65;83.16
70009;BME280;59542;37.950;-122.338;2023-04-26T06:20:19;101290.69;;;11.64;82.96
70009;BME280;59542;37.950;-122.338;2023-04-26T06:22:45;101293.38;;;11.57;83.17
70009;BME280;59542;37.950;-122.338;2023-04-26T06:25:12;101293.16;;;11.59;83.52
70009;BME280;59542;37.950;-122.338;2023-04-26T06:27:38;101290.09;;;11.62;83.54
70009;BME280;59542;37.950;-122.338;2023-04-26T06:30:05;101294.38;;;11.50;84.56
70009;BME280;59542;37.950;-122.338;2023-04-26T06:32:32;101280.50;;;11.33;85.19
70009;BME280;59542;37.950;-122.338;2023-04-26T06:34:58;101292.78;;;11.21;85.42
70009;BME280;59542;37.950;-122.338;2023-04-26T06:37:25;101288.72;;;11.31;85.26
70009;BME280;59542;37.950;-122.338;2023-04-26T06:39:51;101289.56;;;11.32;85.33
70009;BME280;59542;37.950;-122.338;2023-04-26T06:42:17;101293.72;;;11.41;84.58
70009;BME280;59542;37.950;-122.338;2023-04-26T06:44:43;101296.84;;;11.45;84.86
70009;BME280;59542;37.950;-122.338;2023-04-26T06:47:09;101294.09;;;11.38;85.37
70009;BME280;59542;37.950;-122.338;2023-04-26T06:49:36;101289.97;;;11.35;85.42
70009;BME280;59542;37.950;-122.338;2023-04-26T06:52:02;101289.78;;;11.44;84.51
70009;BME280;59542;37.950;-122.338;2023-04-26T06:54:31;101287.56;;;11.47;84.18
70009;BME280;59542;37.950;-122.338;2023-04-26T06:56:58;101290.03;;;11.49;83.98
70009;BME280;59542;37.950;-122.338;2023-04-26T06:59:25;101286.75;;;11.53;83.95
70009;BME280;59542;37.950;-122.338;2023-04-26T07:01:52;101288.63;;;11.59;83.72
70009;BME280;59542;37.950;-122.338;2023-04-26T07:04:19;101291.94;;;11.55;83.75
70009;BME280;59542;37.950;-122.338;2023-04-26T07:06:45;101293.94;;;11.46;84.16
70009;BME280;59542;37.950;-122.338;2023-04-26T07:09:11;101294.78;;;11.53;83.26
70009;BME280;59542;37.950;-122.338;2023-04-26T07:11:38;101292.31;;;11.52;84.00
70009;BME280;59542;37.950;-122.338;2023-04-26T07:14:04;101296.88;;;11.58;83.46
70009;BME280;59542;37.950;-122.338;2023-04-26T07:16:31;101296.66;;;11.53;83.57
70009;BME280;59542;37.950;-122.338;2023-04-26T07:18:57;101290.94;;;11.69;82.78
70009;BME280;59542;37.950;-122.338;2023-04-26T07:21:24;101291.13;;;11.61;83.27
70009;BME280;59542;37.950;-122.338;2023-04-26T07:23:55;101298.34;;;11.60;83.33
70009;BME280;59542;37.950;-122.338;2023-04-26T07:26:22;101290.69;;;11.64;83.07
70009;BME280;59542;37.950;-122.338;2023-04-26T07:28:50;101299.78;;;11.63;83.11
70009;BME280;59542;37.950;-122.338;2023-04-26T07:31:17;101294.19;;;11.58;83.09
70009;BME280;59542;37.950;-122.338;2023-04-26T07:33:43;101289.06;;;11.63;83.48
70009;BME280;59542;37.950;-122.338;2023-04-26T07:36:09;101292.34;;;11.58;83.25
70009;BME280;59542;37.950;-122.338;2023-04-26T07:38:36;101302.00;;;11.53;83.72
70009;BME280;59542;37.950;-122.338;2023-04-26T07:41:03;101304.66;;;11.40;84.47
70009;BME280;59542;37.950;-122.338;2023-04-26T07:43:30;101296.66;;;11.53;84.00
70009;BME280;59542;37.950;-122.338;2023-04-26T07:46:02;101290.03;;;11.49;83.87
70009;BME280;59542;37.950;-122.338;2023-04-26T07:48:28;101298.47;;;11.46;84.42
70009;BME280;59542;37.950;-122.338;2023-04-26T07:50:55;101299.22;;;11.26;85.50
70009;BME280;59542;37.950;-122.338;2023-04-26T07:53:22;101299.28;;;11.33;85.29
70009;BME280;59542;37.950;-122.338;2023-04-26T07:55:49;101299.47;;;11.38;84.98
70009;BME280;59542;37.950;-122.338;2023-04-26T07:58:19;101283.38;;;11.38;85.02
70009;BME280;59542;37.950;-122.338;2023-04-26T08:00:46;101286.72;;;11.47;84.69
70009;BME280;59542;37.950;-122.338;2023-04-26T08:03:14;101287.31;;;11.35;85.19
70009;BME280;59542;37.950;-122.338;2023-04-26T08:05:43;101292.84;;;11.27;85.59
70009;BME280;59542;37.950;-122.338;2023-04-26T08:08:10;101291.19;;;11.26;85.38
70009;BME280;59542;37.950;-122.338;2023-04-26T08:10:39;101292.41;;;11.24;86.19
70009;BME280;59542;37.950;-122.338;2023-04-26T08:13:06;101292.56;;;11.16;86.55
70009;BME280;59542;37.950;-122.338;2023-04-26T08:15:32;101295.06;;;11.17;86.51
70009;BME280;59542;37.950;-122.338;2023-04-26T08:17:59;101305.56;;;11.19;86.11
70009;BME280;59542;37.950;-122.338;2023-04-26T08:20:25;101296.88;;;11.10;86.68
70009;BME280;59542;37.950;-122.338;2023-04-26T08:22:55;101299.53;;;11.10;86.65
70009;BME280;59542;37.950;-122.338;2023-04-26T08:25:22;101297.06;;;11.08;86.61
70009;BME280;59542;37.950;-122.338;2023-04-26T08:27:49;101298.53;;;11.11;86.42
70009;BME280;59542;37.950;-122.338;2023-04-26T08:30:15;101301.84;;;11.13;87.03
70009;BME280;59542;37.950;-122.338;2023-04-26T08:32:42;101303.19;;;10.96;88.50
70009;BME280;59542;37.950;-122.338;2023-04-26T08:35:08;101303.47;;;11.07;87.99
70009;BME280;59542;37.950;-122.338;2023-04-26T08:37:34;101307.19;;;11.13;87.18
70009;BME280;59542;37.950;-122.338;2023-04-26T08:40:06;101300.78;;;11.07;87.16
70009;BME280;59542;37.950;-122.338;2023-04-26T08:42:39;101297.34;;;11.20;86.86
70009;BME280;59542;37.950;-122.338;2023-04-26T08:45:08;101298.34;;;11.13;87.35
70009;BME280;59542;37.950;-122.338;2023-04-26T08:50:12;101298.22;;;10.93;88.70
70009;BME280;59542;37.950;-122.338;2023-04-26T08:52:40;101287.75;;;10.98;88.44
70009;BME280;59542;37.950;-122.338;2023-04-26T08:55:10;101295.16;;;10.96;88.48
70009;BME280;59542;37.950;-122.338;2023-04-26T08:57:42;101292.69;;;10.94;88.24
70009;BME280;59542;37.950;-122.338;2023-04-26T09:00:11;101294.56;;;11.00;88.13
70009;BME280;59542;37.950;-122.338;2023-04-26T09:02:45;101294.88;;;10.84;88.76
70009;BME280;59542;37.950;-122.338;2023-04-26T09:05:12;101288.75;;;10.97;88.07
70009;BME280;59542;37.950;-122.338;2023-04-26T09:07:45;101287.91;;;10.90;88.52
70009;BME280;59542;37.950;-122.338;2023-04-26T09:10:13;101286.09;;;10.97;87.90
70009;BME280;59542;37.950;-122.338;2023-04-26T09:12:44;101283.09;;;11.13;87.17
70009;BME280;59542;37.950;-122.338;2023-04-26T09:15:10;101282.00;;;11.01;88.04
70009;BME280;59542;37.950;-122.338;2023-04-26T09:17:38;101276.22;;;11.04;87.53
70009;BME280;59542;37.950;-122.338;2023-04-26T09:20:20;101282.81;;;11.01;87.81
70009;BME280;59542;37.950;-122.338;2023-04-26T09:22:49;101277.44;;;10.95;87.72
70009;BME280;59542;37.950;-122.338;2023-04-26T09:25:18;101277.66;;;11.00;87.96
70009;BME280;59542;37.950;-122.338;2023-04-26T09:27:45;101280.34;;;11.00;88.26
70009;BME280;59542;37.950;-122.338;2023-04-26T09:30:17;101281.19;;;11.07;88.31
70009;BME280;59542;37.950;-122.338;2023-04-26T09:33:03;101287.16;;;11.02;88.28
70009;BME280;59542;37.950;-122.338;2023-04-26T09:35:31;101285.38;;;11.16;87.41
70009;BME280;59542;37.950;-122.338;2023-04-26T09:38:14;101278.53;;;11.07;87.66
70009;BME280;59542;37.950;-122.338;2023-04-26T09:40:45;101274.22;;;11.13;87.31
70009;BME280;59542;37.950;-122.338;2023-04-26T09:43:13;101272.56;;;11.12;87.47
70009;BME280;59542;37.950;-122.338;2023-04-26T09:45:53;101277.25;;;11.03;87.86
70009;BME280;59542;37.950;-122.338;2023-04-26T09:48:28;101283.13;;;10.85;88.77
70009;BME280;59542;37.950;-122.338;2023-04-26T09:50:57;101282.69;;;10.81;89.32
70009;BME280;59542;37.950;-122.338;2023-04-26T09:53:31;101287.22;;;10.81;89.26
70009;BME280;59542;37.950;-122.338;2023-04-26T09:56:11;101283.34;;;10.83;89.08
70009;BME280;59542;37.950;-122.338;2023-04-26T10:01:16;101286.53;;;11.00;87.78
70009;BME280;59542;37.950;-122.338;2023-04-26T10:03:43;101283.34;;;10.83;88.33
70009;BME280;59542;37.950;-122.338;2023-04-26T10:06:11;101288.53;;;10.92;88.35
70009;BME280;59542;37.950;-122.338;2023-04-26T10:08:37;101281.91;;;10.88;88.58
70009;BME280;59542;37.950;-122.338;2023-04-26T10:11:05;101270.03;;;11.03;88.71
70009;BME280;59542;37.950;-122.338;2023-04-26T10:13:38;101268.84;;;11.06;88.26
70009;BME280;59542;37.950;-122.338;2023-04-26T10:16:06;101282.59;;;10.96;89.16
70009;BME280;59542;37.950;-122.338;2023-04-26T10:18:34;101278.25;;;10.95;89.44
70009;BME280;59542;37.950;-122.338;2023-04-26T10:21:19;101278.50;;;11.00;89.31
70009;BME280;59542;37.950;-122.338;2023-04-26T10:23:48;101277.25;;;11.03;89.48
70009;BME280;59542;37.950;-122.338;2023-04-26T10:26:49;101270.88;;;11.04;89.27
70009;BME280;59542;37.950;-122.338;2023-04-26T10:29:20;101276.63;;;11.01;89.34
70009;BME280;59542;37.950;-122.338;2023-04-26T10:34:30;101276.88;;;11.06;89.71
70009;BME280;59542;37.950;-122.338;2023-04-26T10:39:37;101264.94;;;11.15;89.26
70009;BME280;59542;37.950;-122.338;2023-04-26T10:44:49;101271.31;;;11.07;89.61
70009;BME280;59542;37.950;-122.338;2023-04-26T10:47:33;101265.59;;;11.17;89.23
70009;BME280;59542;37.950;-122.338;2023-04-26T10:50:11;101272.97;;;11.08;89.91
70009;BME280;59542;37.950;-122.338;2023-04-26T10:55:38;101268.06;;;11.19;89.39
70009;BME280;59542;37.950;-122.338;2023-04-26T11:01:17;101279.25;;;11.29;88.52
70009;BME280;59542;37.950;-122.338;2023-04-26T11:06:25;101285.56;;;11.15;88.96
70009;BME280;59542;37.950;-122.338;2023-04-26T11:08:54;101285.38;;;11.16;88.59
70009;BME280;59542;37.950;-122.338;2023-04-26T11:11:24;101286.16;;;11.10;88.95
70009;BME280;59542;37.950;-122.338;2023-04-26T11:13:51;101287.38;;;11.07;88.99
70009;BME280;59542;37.950;-122.338;2023-04-26T11:16:17;101286.53;;;11.00;89.45
70009;BME280;59542;37.950;-122.338;2023-04-26T11:18:46;101286.94;;;11.04;88.99
70009;BME280;59542;37.950;-122.338;2023-04-26T11:21:13;101292.50;;;11.02;88.58
70009;BME280;59542;37.950;-122.338;2023-04-26T11:23:42;101298.53;;;11.11;88.17
70009;BME280;59542;37.950;-122.338;2023-04-26T11:26:17;101287.41;;;11.14;87.48
70009;BME280;59542;37.950;-122.338;2023-04-26T11:28:43;101287.13;;;10.96;88.12
70009;BME280;59542;37.950;-122.338;2023-04-26T11:31:11;101289.81;;;10.96;88.13
70009;BME280;59542;37.950;-122.338;2023-04-26T11:33:40;101286.06;;;10.90;88.39
70009;BME280;59542;37.950;-122.338;2023-04-26T11:36:06;101287.09;;;10.89;88.50
70009;BME280;59542;37.950;-122.338;2023-04-26T11:38:33;101288.72;;;10.90;88.88
70009;BME280;59542;37.950;-122.338;2023-04-26T11:41:00;101291.31;;;11.05;87.95
70009;BME280;59542;37.950;-122.338;2023-04-26T11:43:37;101293.41;;;10.81;89.12
70009;BME280;59542;37.950;-122.338;2023-04-26T11:46:05;101291.81;;;10.94;88.29
70009;BME280;59542;37.950;-122.338;2023-04-26T11:48:33;101281.97;;;10.94;88.12
70009;BME280;59542;37.950;-122.338;2023-04-26T11:51:03;101286.88;;;10.91;88.59
70009;BME280;59542;37.950;-122.338;2023-04-26T11:53:40;101284.09;;;11.05;88.26
70009;BME280;59542;37.950;-122.338;2023-04-26T11:56:17;101286.88;;;10.91;89.45
70009;BME280;59542;37.950;-122.338;2023-04-26T11:58:45;101290.97;;;10.87;89.39
70009;BME280;59542;37.950;-122.338;2023-04-26T12:01:22;101286.91;;;10.97;89.16
70009;BME280;59542;37.950;-122.338;2023-04-26T12:03:56;101285.09;;;11.04;88.91
70009;BME280;59542;37.950;-122.338;2023-04-26T12:06:41;101292.28;;;10.97;88.91
70009;BME280;59542;37.950;-122.338;2023-04-26T12:09:08;101297.41;;;10.64;90.52
70009;BME280;59542;37.950;-122.338;2023-04-26T12:11:36;101288.44;;;10.72;90.64
70009;BME280;59542;37.950;-122.338;2023-04-26T12:14:02;101288.44;;;10.72;91.10
70009;BME280;59542;37.950;-122.338;2023-04-26T12:16:29;101292.09;;;10.71;91.20
70009;BME280;59542;37.950;-122.338;2023-04-26T12:18:56;101293.25;;;10.90;90.22
70009;BME280;59542;37.950;-122.338;2023-04-26T12:21:22;101291.06;;;11.00;89.73
70009;BME280;59542;37.950;-122.338;2023-04-26T12:23:52;101293.03;;;10.84;89.69
70009;BME280;59542;37.950;-122.338;2023-04-26T12:26:18;101292.59;;;10.81;89.80
70009;BME280;59542;37.950;-122.338;2023-04-26T12:28:45;101290.38;;;10.91;88.89
70009;BME280;59542;37.950;-122.338;2023-04-26T12:31:11;101292.00;;;10.86;89.65
70009;BME280;59542;37.950;-122.338;2023-04-26T12:33:37;101301.66;;;10.80;90.01
70009;BME280;59542;37.950;-122.338;2023-04-26T12:36:08;101297.81;;;10.89;89.86
70009;BME280;59542;37.950;-122.338;2023-04-26T12:38:35;101299.69;;;10.95;89.33
70009;BME280;59542;37.950;-122.338;2023-04-26T12:41:01;101309.81;;;11.00;89.34
70009;BME280;59542;37.950;-122.338;2023-04-26T12:43:27;101308.75;;;10.94;89.69
70009;BME280;59542;37.950;-122.338;2023-04-26T12:45:54;101298.94;;;11.08;89.36